sensor_id;sensor_type;location;lat;lon;timestamp;P1;durP1;ratioP1;P2;durP2;ratioP2
35897;SDS011;21997;47.118;15.346;2023-04-29T00:00:29;8.27;;;6.80;;
35897;SDS011;21997;47.118;15.346;2023-04-29T00:02:54;12.80;;;8.00;;
35897;SDS011;21997;47.118;15.346;2023-04-29T00:05:20;8.20;;;7.10;;
35897;SDS011;21997;47.118;15.346;2023-04-29T00:07:45;8.10;;;7.30;;
35897;SDS011;21997;47.118;15.346;2023-04-29T00:10:10;9.43;;;7.70;;
35897;SDS011;21997;47.118;15.346;2023-04-29T00:12:39;8.57;;;7.33;;
35897;SDS011;21997;47.118;15.346;2023-04-29T00:15:05;7.83;;;7.00;;
35897;SDS011;21997;47.118;15.346;2023-04-29T00:17:31;10.10;;;7.17;;
35897;SDS011;21997;47.118;15.346;2023-04-29T00:19:56;8.03;;;6.73;;
35897;SDS011;21997;47.118;15.346;2023-04-29T00:22:22;7.57;;;6.30;;
35897;SDS011;21997;47.118;15.346;2023-04-29T00:24:47;7.20;;;6.47;;
35897;SDS011;21997;47.118;15.346;2023-04-29T00:27:12;7.53;;;6.03;;
35897;SDS011;21997;47.118;15.346;2023-04-29T00:29:38;6.90;;;6.20;;
35897;SDS011;21997;47.118;15.346;2023-04-29T00:32:03;7.23;;;6.00;;
35897;SDS011;21997;47.118;15.346;2023-04-29T00:34:29;7.43;;;6.67;;
35897;SDS011;21997;47.118;15.346;2023-04-29T00:36:54;8.70;;;6.93;;
35897;SDS011;21997;47.118;15.346;2023-04-29T00:39:20;7.43;;;6.50;;
35897;SDS011;21997;47.118;15.346;2023-04-29T00:41:45;8.33;;;6.53;;
35897;SDS011;21997;47.118;15.346;2023-04-29T00:44:10;8.60;;;6.80;;
35897;SDS011;21997;47.118;15.346;2023-04-29T00:46:36;7.93;;;7.00;;
35897;SDS011;21997;47.118;15.346;2023-04-29T00:49:01;6.53;;;5.80;;
35897;SDS011;21997;47.118;15.346;2023-04-29T00:51:27;7.27;;;6.10;;
35897;SDS011;21997;47.118;15.346;2023-04-29T00:53:53;8.60;;;6.70;;
35897;SDS011;21997;47.118;15.346;2023-04-29T00:56:18;7.50;;;6.27;;
35897;SDS011;21997;47.118;15.346;2023-04-29T00:58:45;7.93;;;6.20;;
35897;SDS011;21997;47.118;15.346;2023-04-29T01:01:14;8.73;;;6.17;;
35897;SDS011;21997;47.118;15.346;2023-04-29T01:03:42;7.37;;;6.17;;
35897;SDS011;21997;47.118;15.346;2023-04-29T01:06:08;9.80;;;6.70;;
35897;SDS011;21997;47.118;15.346;2023-04-29T01:08:52;6.67;;;5.93;;
35897;SDS011;21997;47.118;15.346;2023-04-29T01:12:02;8.03;;;6.80;;
35897;SDS011;21997;47.118;15.346;2023-04-29T01:14:41;7.20;;;5.77;;
35897;SDS011;21997;47.118;15.346;2023-04-29T01:17:11;8.23;;;6.57;;
35897;SDS011;21997;47.118;15.346;2023-04-29T01:19:53;9.47;;;6.60;;
35897;SDS011;21997;47.118;15.346;2023-04-29T01:22:22;7.50;;;5.67;;
35897;SDS011;21997;47.118;15.346;2023-04-29T01:24:48;6.47;;;5.80;;
35897;SDS011;21997;47.118;15.346;2023-04-29T01:37:58;7.47;;;6.27;;
35897;SDS011;21997;47.118;15.346;2023-04-29T01:40:33;7.60;;;5.70;;
35897;SDS011;21997;47.118;15.346;2023-04-29T01:43:10;7.20;;;6.23;;
35897;SDS011;21997;47.118;15.346;2023-04-29T01:45:37;6.70;;;5.27;;
35897;SDS011;21997;47.118;15.346;2023-04-29T01:48:06;5.97;;;5.37;;
35897;SDS011;21997;47.118;15.346;2023-04-29T01:50:32;6.53;;;5.50;;
35897;SDS011;21997;47.118;15.346;2023-04-29T01:52:58;6.33;;;5.40;;
35897;SDS011;21997;47.118;15.346;2023-04-29T01:55:23;7.23;;;5.57;;
35897;SDS011;21997;47.118;15.346;2023-04-29T01:57:49;6.67;;;5.77;;
35897;SDS011;21997;47.118;15.346;2023-04-29T02:00:15;7.73;;;6.03;;
35897;SDS011;21997;47.118;15.346;2023-04-29T02:02:40;6.47;;;5.27;;
35897;SDS011;21997;47.118;15.346;2023-04-29T02:05:05;5.60;;;4.93;;
35897;SDS011;21997;47.118;15.346;2023-04-29T02:07:31;6.03;;;5.23;;
35897;SDS011;21997;47.118;15.346;2023-04-29T02:09:56;5.93;;;5.30;;
35897;SDS011;21997;47.118;15.346;2023-04-29T02:12:22;5.43;;;4.90;;
35897;SDS011;21997;47.118;15.346;2023-04-29T02:14:50;5.30;;;4.70;;
35897;SDS011;21997;47.118;15.346;2023-04-29T02:17:17;5.93;;;4.60;;
35897;SDS011;21997;47.118;15.346;2023-04-29T02:19:42;6.20;;;5.07;;
35897;SDS011;21997;47.118;15.346;2023-04-29T02:22:09;8.13;;;4.73;;
35897;SDS011;21997;47.118;15.346;2023-04-29T02:24:36;7.50;;;4.77;;
35897;SDS011;21997;47.118;15.346;2023-04-29T02:27:02;5.30;;;4.60;;
35897;SDS011;21997;47.118;15.346;2023-04-29T02:29:29;5.47;;;4.30;;
35897;SDS011;21997;47.118;15.346;2023-04-29T02:31:55;5.73;;;5.10;;
35897;SDS011;21997;47.118;15.346;2023-04-29T02:34:21;7.87;;;5.20;;
35897;SDS011;21997;47.118;15.346;2023-04-29T02:36:48;6.13;;;4.73;;
35897;SDS011;21997;47.118;15.346;2023-04-29T02:39:13;7.17;;;5.00;;
35897;SDS011;21997;47.118;15.346;2023-04-29T02:41:38;5.30;;;4.80;;
35897;SDS011;21997;47.118;15.346;2023-04-29T02:44:04;6.23;;;5.10;;
35897;SDS011;21997;47.118;15.346;2023-04-29T02:46:30;5.50;;;4.80;;
35897;SDS011;21997;47.118;15.346;2023-04-29T02:48:57;7.37;;;4.73;;
35897;SDS011;21997;47.118;15.346;2023-04-29T02:51:23;6.73;;;4.37;;
35897;SDS011;21997;47.118;15.346;2023-04-29T02:53:48;4.20;;;3.80;;
35897;SDS011;21997;47.118;15.346;2023-04-29T02:56:14;5.17;;;4.07;;
35897;SDS011;21997;47.118;15.346;2023-04-29T02:58:39;4.73;;;4.27;;
35897;SDS011;21997;47.118;15.346;2023-04-29T03:01:06;5.50;;;4.40;;
35897;SDS011;21997;47.118;15.346;2023-04-29T03:03:32;5.07;;;4.57;;
35897;SDS011;21997;47.118;15.346;2023-04-29T03:05:57;5.30;;;4.80;;
35897;SDS011;21997;47.118;15.346;2023-04-29T03:08:22;4.63;;;4.23;;
35897;SDS011;21997;47.118;15.346;2023-04-29T03:10:48;7.73;;;5.00;;
35897;SDS011;21997;47.118;15.346;2023-04-29T03:13:13;5.00;;;4.33;;
35897;SDS011;21997;47.118;15.346;2023-04-29T03:15:39;5.33;;;4.60;;
35897;SDS011;21997;47.118;15.346;2023-04-29T03:18:04;4.83;;;4.33;;
35897;SDS011;21997;47.118;15.346;2023-04-29T03:20:29;4.70;;;4.23;;
35897;SDS011;21997;47.118;15.346;2023-04-29T03:22:56;7.00;;;4.17;;
35897;SDS011;21997;47.118;15.346;2023-04-29T03:25:21;7.33;;;4.77;;
35897;SDS011;21997;47.118;15.346;2023-04-29T03:27:47;6.97;;;5.17;;
35897;SDS011;21997;47.118;15.346;2023-04-29T03:30:13;5.90;;;4.23;;
35897;SDS011;21997;47.118;15.346;2023-04-29T03:32:38;4.97;;;4.47;;
35897;SDS011;21997;47.118;15.346;2023-04-29T03:35:04;4.73;;;4.17;;
35897;SDS011;21997;47.118;15.346;2023-04-29T03:37:29;4.07;;;3.67;;
35897;SDS011;21997;47.118;15.346;2023-04-29T03:39:55;4.93;;;4.30;;
35897;SDS011;21997;47.118;15.346;2023-04-29T03:42:20;6.73;;;4.40;;
35897;SDS011;21997;47.118;15.346;2023-04-29T03:44:46;4.97;;;4.10;;
35897;SDS011;21997;47.118;15.346;2023-04-29T03:47:11;4.00;;;3.63;;
35897;SDS011;21997;47.118;15.346;2023-04-29T03:49:37;5.50;;;4.47;;
35897;SDS011;21997;47.118;15.346;2023-04-29T03:52:03;5.23;;;4.60;;
35897;SDS011;21997;47.118;15.346;2023-04-29T03:54:29;6.80;;;4.60;;
35897;SDS011;21997;47.118;15.346;2023-04-29T03:56:54;5.10;;;4.60;;
35897;SDS011;21997;47.118;15.346;2023-04-29T03:59:20;5.17;;;4.40;;
35897;SDS011;21997;47.118;15.346;2023-04-29T04:01:45;5.60;;;4.87;;
35897;SDS011;21997;47.118;15.346;2023-04-29T04:04:11;6.07;;;4.30;;
35897;SDS011;21997;47.118;15.346;2023-04-29T04:06:36;7.50;;;4.93;;
35897;SDS011;21997;47.118;15.346;2023-04-29T04:09:01;6.50;;;5.10;;
35897;SDS011;21997;47.118;15.346;2023-04-29T04:11:27;7.40;;;5.33;;
35897;SDS011;21997;47.118;15.346;2023-04-29T04:13:52;5.60;;;4.87;;
35897;SDS011;21997;47.118;15.346;2023-04-29T04:16:18;4.57;;;3.73;;
35897;SDS011;21997;47.118;15.346;2023-04-29T04:18:43;4.77;;;4.27;;
35897;SDS011;21997;47.118;15.346;2023-04-29T04:21:09;4.47;;;4.03;;
35897;SDS011;21997;47.118;15.346;2023-04-29T04:23:35;5.77;;;3.97;;
35897;SDS011;21997;47.118;15.346;2023-04-29T04:26:04;4.47;;;3.70;;
35897;SDS011;21997;47.118;15.346;2023-04-29T04:28:29;5.60;;;3.63;;
35897;SDS011;21997;47.118;15.346;2023-04-29T04:30:55;5.33;;;4.17;;
35897;SDS011;21997;47.118;15.346;2023-04-29T04:33:20;5.17;;;4.27;;
35897;SDS011;21997;47.118;15.346;2023-04-29T04:35:46;5.93;;;4.17;;
35897;SDS011;21997;47.118;15.346;2023-04-29T04:38:12;4.00;;;3.70;;
35897;SDS011;21997;47.118;15.346;2023-04-29T04:40:41;4.87;;;4.37;;
35897;SDS011;21997;47.118;15.346;2023-04-29T04:43:06;4.43;;;3.60;;
35897;SDS011;21997;47.118;15.346;2023-04-29T04:45:32;4.93;;;3.97;;
35897;SDS011;21997;47.118;15.346;2023-04-29T04:47:58;7.17;;;4.50;;
35897;SDS011;21997;47.118;15.346;2023-04-29T04:50:26;5.80;;;4.33;;
35897;SDS011;21997;47.118;15.346;2023-04-29T04:52:53;6.37;;;4.30;;
35897;SDS011;21997;47.118;15.346;2023-04-29T04:55:20;6.87;;;4.40;;
35897;SDS011;21997;47.118;15.346;2023-04-29T04:57:46;4.00;;;3.60;;
35897;SDS011;21997;47.118;15.346;2023-04-29T05:00:11;4.13;;;3.73;;
35897;SDS011;21997;47.118;15.346;2023-04-29T05:02:37;4.87;;;4.07;;
35897;SDS011;21997;47.118;15.346;2023-04-29T05:05:02;4.87;;;4.33;;
35897;SDS011;21997;47.118;15.346;2023-04-29T05:07:28;4.83;;;4.33;;
35897;SDS011;21997;47.118;15.346;2023-04-29T05:09:55;4.07;;;3.73;;
35897;SDS011;21997;47.118;15.346;2023-04-29T05:12:20;5.87;;;4.27;;
35897;SDS011;21997;47.118;15.346;2023-04-29T05:14:46;9.07;;;7.13;;
35897;SDS011;21997;47.118;15.346;2023-04-29T05:17:14;16.17;;;11.80;;
35897;SDS011;21997;47.118;15.346;2023-04-29T05:19:39;13.97;;;10.07;;
35897;SDS011;21997;47.118;15.346;2023-04-29T05:22:05;9.93;;;7.67;;
35897;SDS011;21997;47.118;15.346;2023-04-29T05:24:32;7.90;;;6.50;;
35897;SDS011;21997;47.118;15.346;2023-04-29T05:26:57;6.20;;;5.37;;
35897;SDS011;21997;47.118;15.346;2023-04-29T05:29:22;8.53;;;4.17;;
35897;SDS011;21997;47.118;15.346;2023-04-29T05:31:48;4.47;;;4.07;;
35897;SDS011;21997;47.118;15.346;2023-04-29T05:34:14;5.27;;;3.70;;
35897;SDS011;21997;47.118;15.346;2023-04-29T05:36:39;3.87;;;3.50;;
35897;SDS011;21997;47.118;15.346;2023-04-29T05:39:05;4.37;;;3.93;;
35897;SDS011;21997;47.118;15.346;2023-04-29T05:41:30;3.93;;;3.63;;
35897;SDS011;21997;47.118;15.346;2023-04-29T05:43:55;4.23;;;3.83;;
35897;SDS011;21997;47.118;15.346;2023-04-29T05:46:21;4.53;;;3.67;;
35897;SDS011;21997;47.118;15.346;2023-04-29T05:48:47;5.27;;;3.53;;
35897;SDS011;21997;47.118;15.346;2023-04-29T05:51:12;4.40;;;4.00;;
35897;SDS011;21997;47.118;15.346;2023-04-29T05:53:38;4.87;;;4.20;;
35897;SDS011;21997;47.118;15.346;2023-04-29T05:56:04;6.43;;;3.63;;
35897;SDS011;21997;47.118;15.346;2023-04-29T05:58:32;5.40;;;4.23;;
35897;SDS011;21997;47.118;15.346;2023-04-29T06:00:58;4.30;;;3.20;;
35897;SDS011;21997;47.118;15.346;2023-04-29T06:03:24;5.77;;;4.10;;
35897;SDS011;21997;47.118;15.346;2023-04-29T06:05:49;3.83;;;3.23;;
35897;SDS011;21997;47.118;15.346;2023-04-29T06:08:15;3.73;;;3.43;;
35897;SDS011;21997;47.118;15.346;2023-04-29T06:10:40;3.53;;;3.10;;
35897;SDS011;21997;47.118;15.346;2023-04-29T06:13:06;2.77;;;2.57;;
35897;SDS011;21997;47.118;15.346;2023-04-29T06:15:31;4.03;;;3.00;;
35897;SDS011;21997;47.118;15.346;2023-04-29T06:17:56;3.07;;;2.50;;
35897;SDS011;21997;47.118;15.346;2023-04-29T06:20:22;4.50;;;2.70;;
35897;SDS011;21997;47.118;15.346;2023-04-29T06:22:47;4.67;;;3.10;;
35897;SDS011;21997;47.118;15.346;2023-04-29T06:25:13;7.27;;;2.17;;
35897;SDS011;21997;47.118;15.346;2023-04-29T06:27:38;4.47;;;2.30;;
35897;SDS011;21997;47.118;15.346;2023-04-29T06:30:04;3.00;;;2.60;;
35897;SDS011;21997;47.118;15.346;2023-04-29T06:32:30;5.90;;;2.80;;
35897;SDS011;21997;47.118;15.346;2023-04-29T06:34:56;3.60;;;2.83;;
35897;SDS011;21997;47.118;15.346;2023-04-29T06:37:21;3.57;;;2.80;;
35897;SDS011;21997;47.118;15.346;2023-04-29T06:39:47;6.97;;;3.10;;
35897;SDS011;21997;47.118;15.346;2023-04-29T06:42:12;3.63;;;2.90;;
35897;SDS011;21997;47.118;15.346;2023-04-29T06:44:37;6.83;;;3.00;;
35897;SDS011;21997;47.118;15.346;2023-04-29T06:47:03;3.67;;;3.20;;
35897;SDS011;21997;47.118;15.346;2023-04-29T06:49:28;4.70;;;3.73;;
35897;SDS011;21997;47.118;15.346;2023-04-29T06:51:54;3.67;;;3.13;;
35897;SDS011;21997;47.118;15.346;2023-04-29T06:54:19;6.00;;;3.03;;
35897;SDS011;21997;47.118;15.346;2023-04-29T06:56:45;4.43;;;3.17;;
35897;SDS011;21997;47.118;15.346;2023-04-29T06:59:11;3.07;;;2.43;;
35897;SDS011;21997;47.118;15.346;2023-04-29T07:01:37;3.43;;;2.77;;
35897;SDS011;21997;47.118;15.346;2023-04-29T07:04:03;5.03;;;3.27;;
35897;SDS011;21997;47.118;15.346;2023-04-29T07:06:29;3.83;;;2.83;;
35897;SDS011;21997;47.118;15.346;2023-04-29T07:08:54;3.40;;;3.10;;
35897;SDS011;21997;47.118;15.346;2023-04-29T07:11:20;3.23;;;2.60;;
35897;SDS011;21997;47.118;15.346;2023-04-29T07:13:46;3.20;;;2.43;;
35897;SDS011;21997;47.118;15.346;2023-04-29T07:16:16;3.83;;;2.53;;
35897;SDS011;21997;47.118;15.346;2023-04-29T07:18:44;4.00;;;2.63;;
35897;SDS011;21997;47.118;15.346;2023-04-29T07:21:09;2.70;;;2.20;;
35897;SDS011;21997;47.118;15.346;2023-04-29T07:23:35;3.90;;;2.30;;
35897;SDS011;21997;47.118;15.346;2023-04-29T07:26:10;2.17;;;1.90;;
35897;SDS011;21997;47.118;15.346;2023-04-29T07:28:37;2.73;;;2.47;;
35897;SDS011;21997;47.118;15.346;2023-04-29T07:31:02;2.40;;;2.20;;
35897;SDS011;21997;47.118;15.346;2023-04-29T07:33:27;4.10;;;2.47;;
35897;SDS011;21997;47.118;15.346;2023-04-29T07:35:53;2.83;;;2.00;;
35897;SDS011;21997;47.118;15.346;2023-04-29T07:38:19;2.30;;;1.80;;
35897;SDS011;21997;47.118;15.346;2023-04-29T07:40:45;4.30;;;2.10;;
35897;SDS011;21997;47.118;15.346;2023-04-29T07:43:10;2.70;;;1.63;;
35897;SDS011;21997;47.118;15.346;2023-04-29T07:45:36;2.97;;;2.00;;
35897;SDS011;21997;47.118;15.346;2023-04-29T07:48:02;2.63;;;2.30;;
35897;SDS011;21997;47.118;15.346;2023-04-29T07:50:27;1.47;;;1.30;;
35897;SDS011;21997;47.118;15.346;2023-04-29T07:52:52;1.40;;;1.30;;
35897;SDS011;21997;47.118;15.346;2023-04-29T07:55:19;1.83;;;1.30;;
35897;SDS011;21997;47.118;15.346;2023-04-29T07:57:44;1.58;;;1.48;;
35897;SDS011;21997;47.118;15.346;2023-04-29T08:00:10;2.78;;;2.30;;
35897;SDS011;21997;47.118;15.346;2023-04-29T08:02:36;1.98;;;1.88;;
35897;SDS011;21997;47.118;15.346;2023-04-29T08:05:01;2.33;;;1.80;;
35897;SDS011;21997;47.118;15.346;2023-04-29T08:07:27;2.47;;;1.50;;
35897;SDS011;21997;47.118;15.346;2023-04-29T08:09:52;1.58;;;1.48;;
35897;SDS011;21997;47.118;15.346;2023-04-29T08:12:18;1.95;;;1.60;;
35897;SDS011;21997;47.118;15.346;2023-04-29T08:14:43;3.15;;;1.90;;
35897;SDS011;21997;47.118;15.346;2023-04-29T08:17:08;1.65;;;1.55;;
35897;SDS011;21997;47.118;15.346;2023-04-29T08:19:34;2.70;;;1.73;;
35897;SDS011;21997;47.118;15.346;2023-04-29T08:21:59;1.97;;;1.50;;
35897;SDS011;21997;47.118;15.346;2023-04-29T08:24:25;2.37;;;1.50;;
35897;SDS011;21997;47.118;15.346;2023-04-29T08:26:50;2.73;;;1.70;;
35897;SDS011;21997;47.118;15.346;2023-04-29T08:29:17;2.40;;;1.50;;
35897;SDS011;21997;47.118;15.346;2023-04-29T08:31:42;1.27;;;1.00;;
35897;SDS011;21997;47.118;15.346;2023-04-29T08:34:08;1.93;;;1.60;;
35897;SDS011;21997;47.118;15.346;2023-04-29T08:36:33;1.33;;;1.23;;
35897;SDS011;21997;47.118;15.346;2023-04-29T08:39:01;1.53;;;1.30;;
35897;SDS011;21997;47.118;15.346;2023-04-29T08:41:26;3.10;;;1.53;;
35897;SDS011;21997;47.118;15.346;2023-04-29T08:43:52;2.20;;;1.50;;
35897;SDS011;21997;47.118;15.346;2023-04-29T08:46:17;2.33;;;1.53;;
35897;SDS011;21997;47.118;15.346;2023-04-29T08:48:43;1.60;;;1.40;;
35897;SDS011;21997;47.118;15.346;2023-04-29T08:51:10;2.27;;;1.50;;
35897;SDS011;21997;47.118;15.346;2023-04-29T08:53:36;2.27;;;1.30;;
35897;SDS011;21997;47.118;15.346;2023-04-29T08:56:03;1.80;;;1.03;;
35897;SDS011;21997;47.118;15.346;2023-04-29T08:58:33;1.03;;;0.93;;
35897;SDS011;21997;47.118;15.346;2023-04-29T09:01:00;1.90;;;1.20;;
35897;SDS011;21997;47.118;15.346;2023-04-29T09:03:29;1.30;;;0.93;;
35897;SDS011;21997;47.118;15.346;2023-04-29T09:05:58;3.43;;;1.70;;
35897;SDS011;21997;47.118;15.346;2023-04-29T09:08:25;0.73;;;0.73;;
35897;SDS011;21997;47.118;15.346;2023-04-29T09:10:50;0.90;;;0.70;;
35897;SDS011;21997;47.118;15.346;2023-04-29T09:13:26;2.60;;;1.00;;
35897;SDS011;21997;47.118;15.346;2023-04-29T09:15:52;0.83;;;0.50;;
35897;SDS011;21997;47.118;15.346;2023-04-29T09:21:19;2.00;;;0.70;;
35897;SDS011;21997;47.118;15.346;2023-04-29T09:23:46;1.30;;;0.80;;
35897;SDS011;21997;47.118;15.346;2023-04-29T09:26:12;1.00;;;0.80;;
35897;SDS011;21997;47.118;15.346;2023-04-29T09:28:38;1.98;;;0.68;;
35897;SDS011;21997;47.118;15.346;2023-04-29T09:31:07;2.25;;;0.70;;
35897;SDS011;21997;47.118;15.346;2023-04-29T09:33:49;1.10;;;1.00;;
35897;SDS011;21997;47.118;15.346;2023-04-29T09:38:59;0.60;;;0.60;;
35897;SDS011;21997;47.118;15.346;2023-04-29T09:41:24;2.03;;;0.80;;
35897;SDS011;21997;47.118;15.346;2023-04-29T09:44:01;0.75;;;0.75;;
35897;SDS011;21997;47.118;15.346;2023-04-29T09:46:29;1.58;;;0.60;;
35897;SDS011;21997;47.118;15.346;2023-04-29T09:48:54;2.60;;;0.65;;
35897;SDS011;21997;47.118;15.346;2023-04-29T09:51:21;0.98;;;0.82;;
35897;SDS011;21997;47.118;15.346;2023-04-29T09:53:46;1.08;;;0.70;;
35897;SDS011;21997;47.118;15.346;2023-04-29T09:56:12;0.82;;;0.60;;
35897;SDS011;21997;47.118;15.346;2023-04-29T09:58:37;0.60;;;0.60;;
35897;SDS011;21997;47.118;15.346;2023-04-29T10:01:04;0.70;;;0.60;;
35897;SDS011;21997;47.118;15.346;2023-04-29T10:03:33;1.00;;;0.68;;
35897;SDS011;21997;47.118;15.346;2023-04-29T10:06:02;1.00;;;0.43;;
35897;SDS011;21997;47.118;15.346;2023-04-29T10:08:29;0.52;;;0.52;;
35897;SDS011;21997;47.118;15.346;2023-04-29T10:10:56;0.63;;;0.60;;
35897;SDS011;21997;47.118;15.346;2023-04-29T10:13:24;0.60;;;0.55;;
35897;SDS011;21997;47.118;15.346;2023-04-29T10:16:03;0.40;;;0.40;;
35897;SDS011;21997;47.118;15.346;2023-04-29T10:18:53;2.28;;;0.45;;
35897;SDS011;21997;47.118;15.346;2023-04-29T10:21:27;0.90;;;0.40;;
35897;SDS011;21997;47.118;15.346;2023-04-29T10:23:57;1.90;;;0.70;;
35897;SDS011;21997;47.118;15.346;2023-04-29T10:26:27;0.70;;;0.50;;
35897;SDS011;21997;47.118;15.346;2023-04-29T10:28:56;1.42;;;0.40;;
35897;SDS011;21997;47.118;15.346;2023-04-29T10:31:27;0.60;;;0.50;;
35897;SDS011;21997;47.118;15.346;2023-04-29T10:33:57;0.50;;;0.50;;
35897;SDS011;21997;47.118;15.346;2023-04-29T10:36:24;0.38;;;0.30;;
35897;SDS011;21997;47.118;15.346;2023-04-29T10:38:50;1.63;;;0.60;;
35897;SDS011;21997;47.118;15.346;2023-04-29T10:41:21;0.50;;;0.50;;
35897;SDS011;21997;47.118;15.346;2023-04-29T10:43:52;0.50;;;0.50;;
35897;SDS011;21997;47.118;15.346;2023-04-29T10:46:22;1.42;;;0.60;;
35897;SDS011;21997;47.118;15.346;2023-04-29T10:48:50;1.98;;;0.80;;
35897;SDS011;21997;47.118;15.346;2023-04-29T10:51:27;0.40;;;0.40;;
35897;SDS011;21997;47.118;15.346;2023-04-29T10:56:47;0.65;;;0.60;;
35897;SDS011;21997;47.118;15.346;2023-04-29T10:59:19;2.45;;;0.80;;
35897;SDS011;21997;47.118;15.346;2023-04-29T11:01:46;0.57;;;0.50;;
35897;SDS011;21997;47.118;15.346;2023-04-29T11:04:16;1.17;;;0.63;;
35897;SDS011;21997;47.118;15.346;2023-04-29T11:06:43;1.63;;;0.40;;
35897;SDS011;21997;47.118;15.346;2023-04-29T11:09:17;0.63;;;0.50;;
35897;SDS011;21997;47.118;15.346;2023-04-29T11:14:30;2.80;;;0.40;;
35897;SDS011;21997;47.118;15.346;2023-04-29T11:17:07;0.35;;;0.30;;
35897;SDS011;21997;47.118;15.346;2023-04-29T11:19:35;0.60;;;0.30;;
35897;SDS011;21997;47.118;15.346;2023-04-29T11:22:10;0.55;;;0.40;;
35897;SDS011;21997;47.118;15.346;2023-04-29T11:25:02;1.33;;;0.35;;
35897;SDS011;21997;47.118;15.346;2023-04-29T11:27:29;0.35;;;0.35;;
35897;SDS011;21997;47.118;15.346;2023-04-29T11:29:56;0.65;;;0.38;;
35897;SDS011;21997;47.118;15.346;2023-04-29T11:32:24;0.40;;;0.40;;
35897;SDS011;21997;47.118;15.346;2023-04-29T11:34:54;0.60;;;0.40;;
35897;SDS011;21997;47.118;15.346;2023-04-29T11:37:24;0.40;;;0.40;;
35897;SDS011;21997;47.118;15.346;2023-04-29T11:39:56;0.28;;;0.28;;
35897;SDS011;21997;47.118;15.346;2023-04-29T11:42:25;0.55;;;0.40;;
35897;SDS011;21997;47.118;15.346;2023-04-29T11:44:51;0.55;;;0.32;;
35897;SDS011;21997;47.118;15.346;2023-04-29T11:47:18;2.40;;;0.75;;
35897;SDS011;21997;47.118;15.346;2023-04-29T11:49:43;0.20;;;0.20;;
35897;SDS011;21997;47.118;15.346;2023-04-29T11:52:09;0.40;;;0.20;;
35897;SDS011;21997;47.118;15.346;2023-04-29T11:54:35;0.30;;;0.30;;
35897;SDS011;21997;47.118;15.346;2023-04-29T11:57:00;0.32;;;0.30;;
35897;SDS011;21997;47.118;15.346;2023-04-29T11:59:29;0.30;;;0.30;;
35897;SDS011;21997;47.118;15.346;2023-04-29T12:01:56;0.52;;;0.47;;
35897;SDS011;21997;47.118;15.346;2023-04-29T12:04:22;0.20;;;0.20;;
35897;SDS011;21997;47.118;15.346;2023-04-29T12:06:50;0.35;;;0.30;;
35897;SDS011;21997;47.118;15.346;2023-04-29T12:09:15;0.60;;;0.40;;
35897;SDS011;21997;47.118;15.346;2023-04-29T12:11:43;0.40;;;0.38;;
35897;SDS011;21997;47.118;15.346;2023-04-29T12:14:08;0.30;;;0.30;;
35897;SDS011;21997;47.118;15.346;2023-04-29T12:16:34;0.50;;;0.50;;
35897;SDS011;21997;47.118;15.346;2023-04-29T12:19:00;0.50;;;0.38;;
35897;SDS011;21997;47.118;15.346;2023-04-29T12:21:26;0.30;;;0.25;;
35897;SDS011;21997;47.118;15.346;2023-04-29T12:23:51;0.55;;;0.25;;
35897;SDS011;21997;47.118;15.346;2023-04-29T12:26:17;0.28;;;0.17;;
35897;SDS011;21997;47.118;15.346;2023-04-29T12:28:44;0.50;;;0.20;;
35897;SDS011;21997;47.118;15.346;2023-04-29T12:31:10;0.40;;;0.30;;
35897;SDS011;21997;47.118;15.346;2023-04-29T12:33:35;0.20;;;0.20;;
35897;SDS011;21997;47.118;15.346;2023-04-29T12:36:01;0.20;;;0.20;;
35897;SDS011;21997;47.118;15.346;2023-04-29T12:38:28;0.90;;;0.40;;
35897;SDS011;21997;47.118;15.346;2023-04-29T12:40:55;0.30;;;0.30;;
35897;SDS011;21997;47.118;15.346;2023-04-29T12:43:29;0.40;;;0.40;;
35897;SDS011;21997;47.118;15.346;2023-04-29T12:46:05;5.15;;;0.20;;
35897;SDS011;21997;47.118;15.346;2023-04-29T12:48:32;0.20;;;0.10;;
35897;SDS011;21997;47.118;15.346;2023-04-29T12:50:59;0.20;;;0.20;;
35897;SDS011;21997;47.118;15.346;2023-04-29T12:53:25;0.17;;;0.17;;
35897;SDS011;21997;47.118;15.346;2023-04-29T12:55:51;1.00;;;0.40;;
35897;SDS011;21997;47.118;15.346;2023-04-29T12:58:17;0.70;;;0.20;;
35897;SDS011;21997;47.118;15.346;2023-04-29T13:00:42;0.40;;;0.20;;
35897;SDS011;21997;47.118;15.346;2023-04-29T13:03:08;0.22;;;0.15;;
35897;SDS011;21997;47.118;15.346;2023-04-29T13:05:33;0.20;;;0.20;;
35897;SDS011;21997;47.118;15.346;2023-04-29T13:07:58;0.52;;;0.30;;
35897;SDS011;21997;47.118;15.346;2023-04-29T13:10:24;0.25;;;0.22;;
35897;SDS011;21997;47.118;15.346;2023-04-29T13:12:49;0.75;;;0.30;;
35897;SDS011;21997;47.118;15.346;2023-04-29T13:15:15;2.50;;;0.40;;
35897;SDS011;21997;47.118;15.346;2023-04-29T13:17:40;0.45;;;0.20;;
35897;SDS011;21997;47.118;15.346;2023-04-29T13:20:06;1.17;;;0.40;;
35897;SDS011;21997;47.118;15.346;2023-04-29T13:22:32;0.95;;;0.70;;
35897;SDS011;21997;47.118;15.346;2023-04-29T13:24:58;0.30;;;0.30;;
35897;SDS011;21997;47.118;15.346;2023-04-29T13:27:23;1.70;;;1.30;;
35897;SDS011;21997;47.118;15.346;2023-04-29T13:29:48;3.70;;;2.85;;
35897;SDS011;21997;47.118;15.346;2023-04-29T13:32:14;1.85;;;1.55;;
35897;SDS011;21997;47.118;15.346;2023-04-29T13:34:40;2.22;;;1.48;;
35897;SDS011;21997;47.118;15.346;2023-04-29T13:37:07;0.50;;;0.50;;
35897;SDS011;21997;47.118;15.346;2023-04-29T13:39:33;0.60;;;0.47;;
35897;SDS011;21997;47.118;15.346;2023-04-29T13:41:58;0.70;;;0.40;;
35897;SDS011;21997;47.118;15.346;2023-04-29T13:44:24;0.30;;;0.30;;
35897;SDS011;21997;47.118;15.346;2023-04-29T13:46:49;0.13;;;0.13;;
35897;SDS011;21997;47.118;15.346;2023-04-29T13:49:15;0.50;;;0.50;;
35897;SDS011;21997;47.118;15.346;2023-04-29T13:51:41;0.40;;;0.20;;
35897;SDS011;21997;47.118;15.346;2023-04-29T13:54:06;0.40;;;0.23;;
35897;SDS011;21997;47.118;15.346;2023-04-29T13:56:32;0.93;;;0.27;;
35897;SDS011;21997;47.118;15.346;2023-04-29T13:58:57;2.80;;;1.17;;
35897;SDS011;21997;47.118;15.346;2023-04-29T14:01:22;1.23;;;0.50;;
35897;SDS011;21997;47.118;15.346;2023-04-29T14:03:48;0.47;;;0.20;;
35897;SDS011;21997;47.118;15.346;2023-04-29T14:06:13;0.47;;;0.40;;
35897;SDS011;21997;47.118;15.346;2023-04-29T14:08:39;0.30;;;0.20;;
35897;SDS011;21997;47.118;15.346;2023-04-29T14:11:05;0.50;;;0.30;;
35897;SDS011;21997;47.118;15.346;2023-04-29T14:13:31;0.50;;;0.40;;
35897;SDS011;21997;47.118;15.346;2023-04-29T14:15:56;0.67;;;0.30;;
35897;SDS011;21997;47.118;15.346;2023-04-29T14:18:23;2.53;;;0.87;;
35897;SDS011;21997;47.118;15.346;2023-04-29T14:20:49;1.40;;;0.40;;
35897;SDS011;21997;47.118;15.346;2023-04-29T14:23:14;3.07;;;0.40;;
35897;SDS011;21997;47.118;15.346;2023-04-29T14:25:39;1.03;;;0.50;;
35897;SDS011;21997;47.118;15.346;2023-04-29T14:28:05;1.40;;;0.30;;
35897;SDS011;21997;47.118;15.346;2023-04-29T14:30:30;0.60;;;0.40;;
35897;SDS011;21997;47.118;15.346;2023-04-29T14:32:56;0.50;;;0.30;;
35897;SDS011;21997;47.118;15.346;2023-04-29T14:35:21;1.00;;;0.50;;
35897;SDS011;21997;47.118;15.346;2023-04-29T14:37:47;1.87;;;0.40;;
35897;SDS011;21997;47.118;15.346;2023-04-29T14:40:12;1.03;;;0.67;;
35897;SDS011;21997;47.118;15.346;2023-04-29T14:42:37;0.50;;;0.50;;
35897;SDS011;21997;47.118;15.346;2023-04-29T14:45:03;0.70;;;0.60;;
35897;SDS011;21997;47.118;15.346;2023-04-29T14:47:29;0.97;;;0.73;;
35897;SDS011;21997;47.118;15.346;2023-04-29T14:49:54;0.40;;;0.40;;
35897;SDS011;21997;47.118;15.346;2023-04-29T14:52:20;0.30;;;0.30;;